To NAV CANADA Home Page Login to a new session Search on AWWS site Feedback and Comments Disclaimer Vers la page française équivalente Tips FAQ What's new on the site To the Forecasts and Observations / NOTAM section To "File a Flight Plan" website Publications and other links Update of the User's profile FIC Telephone Numbers My Weather Data Folder Route Weather Data Regional Weather Data Local Weather Data To the Forecasts and Observations / NOTAM section
Request Generated 08/22/2017 at 01:32:18 UTC . Weather information available at that time is displayed.

METAR/TAF

WHITEHORSE/ERIK NIELSEN INTL/YT    

METAR CYXY 220100Z 15014G21KT 110V170 40SM FEW050 BKN080 BKN170 17/08
A2976 RMK SC2AC4AC1 SLP093 DENSITY ALT 3300FT=
METAR CYXY 220000Z 13012G19KT 40SM FEW040 BKN065 BKN090 18/08 A2976
RMK SC2SC4AC1 SLP092 DENSITY ALT 3400FT=
METAR CYXY 212300Z 13013KT 110V180 40SM FEW040 BKN062 BKN090 17/09
A2977 RMK SC2SC4AC1 SLP098 DENSITY ALT 3300FT=

TAF CYXY 212338Z 2200/2224 14012KT P6SM SCT060 BKN120 TEMPO 2200/2210
FEW040 BKN060 OVC100
FM221000 16010KT P6SM SCT015 BKN060 OVC100 TEMPO 2210/2220 P6SM
-SHRA BKN015 OVC060
FM222000 16015KT P6SM FEW020 SCT050 BKN080
RMK NXT FCST BY 220600Z=
Your time UTC time
Weather data provided by Environment Canada and NAV CANADA